sensor_id;sensor_type;location;lat;lon;timestamp;P1;durP1;ratioP1;P2;durP2;ratioP2
14847;SDS011;7516;43.570;1.448;2023-09-19T00:00:56;5.07;;;1.60;;
14847;SDS011;7516;43.570;1.448;2023-09-19T00:03:25;5.40;;;1.58;;
14847;SDS011;7516;43.570;1.448;2023-09-19T00:05:53;3.50;;;1.55;;
14847;SDS011;7516;43.570;1.448;2023-09-19T00:08:21;3.67;;;1.70;;
14847;SDS011;7516;43.570;1.448;2023-09-19T00:10:48;5.00;;;1.50;;
14847;SDS011;7516;43.570;1.448;2023-09-19T00:13:16;4.53;;;1.58;;
14847;SDS011;7516;43.570;1.448;2023-09-19T00:15:45;5.75;;;1.70;;
14847;SDS011;7516;43.570;1.448;2023-09-19T00:18:14;4.55;;;1.73;;
14847;SDS011;7516;43.570;1.448;2023-09-19T00:20:43;5.93;;;1.80;;
14847;SDS011;7516;43.570;1.448;2023-09-19T00:23:12;5.32;;;1.50;;
14847;SDS011;7516;43.570;1.448;2023-09-19T00:25:40;3.10;;;1.42;;
14847;SDS011;7516;43.570;1.448;2023-09-19T00:28:07;3.97;;;1.60;;
14847;SDS011;7516;43.570;1.448;2023-09-19T00:30:35;3.25;;;1.52;;
14847;SDS011;7516;43.570;1.448;2023-09-19T00:33:04;4.40;;;1.42;;
14847;SDS011;7516;43.570;1.448;2023-09-19T00:35:32;4.07;;;1.40;;
14847;SDS011;7516;43.570;1.448;2023-09-19T00:38:03;4.68;;;1.58;;
14847;SDS011;7516;43.570;1.448;2023-09-19T00:40:31;5.65;;;1.80;;
14847;SDS011;7516;43.570;1.448;2023-09-19T00:43:00;2.92;;;1.42;;
14847;SDS011;7516;43.570;1.448;2023-09-19T00:45:27;5.15;;;1.35;;
14847;SDS011;7516;43.570;1.448;2023-09-19T00:47:55;3.03;;;1.25;;
14847;SDS011;7516;43.570;1.448;2023-09-19T00:50:24;5.05;;;1.45;;
14847;SDS011;7516;43.570;1.448;2023-09-19T00:52:54;6.30;;;1.77;;
14847;SDS011;7516;43.570;1.448;2023-09-19T00:55:24;4.55;;;1.70;;
14847;SDS011;7516;43.570;1.448;2023-09-19T00:57:53;6.35;;;1.55;;
14847;SDS011;7516;43.570;1.448;2023-09-19T01:00:23;4.53;;;1.45;;
14847;SDS011;7516;43.570;1.448;2023-09-19T01:02:51;5.00;;;1.30;;
14847;SDS011;7516;43.570;1.448;2023-09-19T01:05:21;5.82;;;1.55;;
14847;SDS011;7516;43.570;1.448;2023-09-19T01:07:49;4.40;;;1.20;;
14847;SDS011;7516;43.570;1.448;2023-09-19T01:10:18;3.83;;;1.50;;
14847;SDS011;7516;43.570;1.448;2023-09-19T01:13:04;4.78;;;1.42;;
14847;SDS011;7516;43.570;1.448;2023-09-19T01:15:39;4.70;;;1.35;;
14847;SDS011;7516;43.570;1.448;2023-09-19T01:18:17;4.65;;;1.40;;
14847;SDS011;7516;43.570;1.448;2023-09-19T01:20:55;4.07;;;1.50;;
14847;SDS011;7516;43.570;1.448;2023-09-19T01:23:34;3.63;;;1.30;;
14847;SDS011;7516;43.570;1.448;2023-09-19T01:26:18;5.68;;;1.50;;
14847;SDS011;7516;43.570;1.448;2023-09-19T01:29:12;4.35;;;1.70;;
14847;SDS011;7516;43.570;1.448;2023-09-19T01:31:59;2.60;;;1.23;;
14847;SDS011;7516;43.570;1.448;2023-09-19T01:34:43;6.95;;;1.73;;
14847;SDS011;7516;43.570;1.448;2023-09-19T01:37:12;3.42;;;1.58;;
14847;SDS011;7516;43.570;1.448;2023-09-19T01:39:44;3.58;;;1.25;;
14847;SDS011;7516;43.570;1.448;2023-09-19T01:42:16;3.85;;;1.50;;
14847;SDS011;7516;43.570;1.448;2023-09-19T01:44:51;5.97;;;1.60;;
14847;SDS011;7516;43.570;1.448;2023-09-19T01:47:30;5.43;;;1.50;;
14847;SDS011;7516;43.570;1.448;2023-09-19T01:50:02;2.42;;;1.35;;
14847;SDS011;7516;43.570;1.448;2023-09-19T01:52:40;3.78;;;1.25;;
14847;SDS011;7516;43.570;1.448;2023-09-19T01:55:13;4.05;;;1.80;;
14847;SDS011;7516;43.570;1.448;2023-09-19T01:57:46;3.13;;;1.40;;
14847;SDS011;7516;43.570;1.448;2023-09-19T02:00:20;6.20;;;1.70;;
14847;SDS011;7516;43.570;1.448;2023-09-19T02:02:51;4.18;;;1.40;;
14847;SDS011;7516;43.570;1.448;2023-09-19T02:05:24;4.13;;;1.67;;
14847;SDS011;7516;43.570;1.448;2023-09-19T02:07:53;6.20;;;1.63;;
14847;SDS011;7516;43.570;1.448;2023-09-19T02:10:21;4.40;;;1.63;;
14847;SDS011;7516;43.570;1.448;2023-09-19T02:12:49;6.68;;;1.77;;
14847;SDS011;7516;43.570;1.448;2023-09-19T02:15:17;4.00;;;1.63;;
14847;SDS011;7516;43.570;1.448;2023-09-19T02:17:44;5.07;;;1.40;;
14847;SDS011;7516;43.570;1.448;2023-09-19T02:20:13;3.22;;;1.33;;
14847;SDS011;7516;43.570;1.448;2023-09-19T02:22:42;4.55;;;1.38;;
14847;SDS011;7516;43.570;1.448;2023-09-19T02:25:10;3.80;;;1.67;;
14847;SDS011;7516;43.570;1.448;2023-09-19T02:27:38;5.72;;;1.77;;
14847;SDS011;7516;43.570;1.448;2023-09-19T02:30:07;4.72;;;1.50;;
14847;SDS011;7516;43.570;1.448;2023-09-19T02:32:35;3.33;;;1.33;;
14847;SDS011;7516;43.570;1.448;2023-09-19T02:35:04;4.05;;;1.35;;
14847;SDS011;7516;43.570;1.448;2023-09-19T02:37:37;8.07;;;1.33;;
14847;SDS011;7516;43.570;1.448;2023-09-19T02:40:05;4.43;;;1.60;;
14847;SDS011;7516;43.570;1.448;2023-09-19T02:42:43;6.80;;;1.50;;
14847;SDS011;7516;43.570;1.448;2023-09-19T02:45:15;5.03;;;1.80;;
14847;SDS011;7516;43.570;1.448;2023-09-19T02:47:43;5.35;;;1.80;;
14847;SDS011;7516;43.570;1.448;2023-09-19T02:50:11;6.10;;;1.50;;
14847;SDS011;7516;43.570;1.448;2023-09-19T02:52:42;4.13;;;1.50;;
14847;SDS011;7516;43.570;1.448;2023-09-19T02:55:10;3.45;;;1.50;;
14847;SDS011;7516;43.570;1.448;2023-09-19T02:57:39;3.58;;;1.38;;
14847;SDS011;7516;43.570;1.448;2023-09-19T03:00:08;4.57;;;1.42;;
14847;SDS011;7516;43.570;1.448;2023-09-19T03:02:37;3.15;;;1.48;;
14847;SDS011;7516;43.570;1.448;2023-09-19T03:05:06;3.03;;;1.35;;
14847;SDS011;7516;43.570;1.448;2023-09-19T03:07:36;3.28;;;1.30;;
14847;SDS011;7516;43.570;1.448;2023-09-19T03:10:06;3.70;;;1.42;;
14847;SDS011;7516;43.570;1.448;2023-09-19T03:12:34;3.65;;;1.65;;
14847;SDS011;7516;43.570;1.448;2023-09-19T03:15:02;5.65;;;1.40;;
14847;SDS011;7516;43.570;1.448;2023-09-19T03:17:30;4.53;;;1.63;;
14847;SDS011;7516;43.570;1.448;2023-09-19T03:19:58;4.22;;;1.30;;
14847;SDS011;7516;43.570;1.448;2023-09-19T03:22:26;5.00;;;1.30;;
14847;SDS011;7516;43.570;1.448;2023-09-19T03:24:54;4.43;;;1.60;;
14847;SDS011;7516;43.570;1.448;2023-09-19T03:27:23;4.47;;;1.33;;
14847;SDS011;7516;43.570;1.448;2023-09-19T03:29:50;6.07;;;1.40;;
14847;SDS011;7516;43.570;1.448;2023-09-19T03:32:18;3.33;;;1.40;;
14847;SDS011;7516;43.570;1.448;2023-09-19T03:34:46;4.43;;;1.45;;
14847;SDS011;7516;43.570;1.448;2023-09-19T03:37:13;4.45;;;1.40;;
14847;SDS011;7516;43.570;1.448;2023-09-19T03:39:41;3.58;;;1.30;;
14847;SDS011;7516;43.570;1.448;2023-09-19T03:42:08;5.28;;;1.70;;
14847;SDS011;7516;43.570;1.448;2023-09-19T03:44:37;5.05;;;1.40;;
14847;SDS011;7516;43.570;1.448;2023-09-19T03:47:05;6.03;;;1.65;;
14847;SDS011;7516;43.570;1.448;2023-09-19T03:49:32;5.97;;;1.67;;
14847;SDS011;7516;43.570;1.448;2023-09-19T03:52:00;3.63;;;1.45;;
14847;SDS011;7516;43.570;1.448;2023-09-19T03:54:28;4.78;;;1.60;;
14847;SDS011;7516;43.570;1.448;2023-09-19T03:56:55;3.92;;;1.48;;
14847;SDS011;7516;43.570;1.448;2023-09-19T03:59:22;3.35;;;1.38;;
14847;SDS011;7516;43.570;1.448;2023-09-19T04:01:51;4.68;;;1.38;;
14847;SDS011;7516;43.570;1.448;2023-09-19T04:04:22;4.80;;;1.50;;
14847;SDS011;7516;43.570;1.448;2023-09-19T04:06:50;3.75;;;1.50;;
14847;SDS011;7516;43.570;1.448;2023-09-19T04:09:18;3.75;;;1.48;;
14847;SDS011;7516;43.570;1.448;2023-09-19T04:11:45;4.18;;;1.50;;
14847;SDS011;7516;43.570;1.448;2023-09-19T04:14:15;4.50;;;1.48;;
14847;SDS011;7516;43.570;1.448;2023-09-19T04:16:42;5.32;;;1.63;;
14847;SDS011;7516;43.570;1.448;2023-09-19T04:19:11;5.82;;;1.55;;
14847;SDS011;7516;43.570;1.448;2023-09-19T04:21:39;7.05;;;2.20;;
14847;SDS011;7516;43.570;1.448;2023-09-19T04:24:07;5.38;;;1.90;;
14847;SDS011;7516;43.570;1.448;2023-09-19T04:26:35;6.50;;;1.60;;
14847;SDS011;7516;43.570;1.448;2023-09-19T04:29:03;4.40;;;1.48;;
14847;SDS011;7516;43.570;1.448;2023-09-19T04:31:31;4.20;;;1.42;;
14847;SDS011;7516;43.570;1.448;2023-09-19T04:33:58;5.45;;;1.63;;
14847;SDS011;7516;43.570;1.448;2023-09-19T04:36:31;5.72;;;1.55;;
14847;SDS011;7516;43.570;1.448;2023-09-19T04:38:58;6.15;;;1.65;;
14847;SDS011;7516;43.570;1.448;2023-09-19T04:41:27;3.67;;;1.67;;
14847;SDS011;7516;43.570;1.448;2023-09-19T04:43:55;6.38;;;1.77;;
14847;SDS011;7516;43.570;1.448;2023-09-19T04:46:23;5.85;;;1.65;;
14847;SDS011;7516;43.570;1.448;2023-09-19T04:48:50;7.43;;;1.80;;
14847;SDS011;7516;43.570;1.448;2023-09-19T04:51:18;4.90;;;1.65;;
14847;SDS011;7516;43.570;1.448;2023-09-19T04:53:48;4.65;;;2.13;;
14847;SDS011;7516;43.570;1.448;2023-09-19T04:56:15;4.75;;;1.88;;
14847;SDS011;7516;43.570;1.448;2023-09-19T04:58:42;7.25;;;2.65;;
14847;SDS011;7516;43.570;1.448;2023-09-19T05:01:10;7.25;;;2.00;;
14847;SDS011;7516;43.570;1.448;2023-09-19T05:03:40;5.40;;;1.88;;
14847;SDS011;7516;43.570;1.448;2023-09-19T05:06:08;5.30;;;2.03;;
14847;SDS011;7516;43.570;1.448;2023-09-19T05:08:35;5.70;;;1.52;;
14847;SDS011;7516;43.570;1.448;2023-09-19T05:11:05;4.53;;;1.85;;
14847;SDS011;7516;43.570;1.448;2023-09-19T05:13:34;5.88;;;1.95;;
14847;SDS011;7516;43.570;1.448;2023-09-19T05:16:01;6.57;;;2.10;;
14847;SDS011;7516;43.570;1.448;2023-09-19T05:18:29;2.70;;;1.50;;
14847;SDS011;7516;43.570;1.448;2023-09-19T05:20:56;4.40;;;1.90;;
14847;SDS011;7516;43.570;1.448;2023-09-19T05:23:24;5.30;;;1.60;;
14847;SDS011;7516;43.570;1.448;2023-09-19T05:25:52;6.20;;;1.70;;
14847;SDS011;7516;43.570;1.448;2023-09-19T05:28:23;7.45;;;1.70;;
14847;SDS011;7516;43.570;1.448;2023-09-19T05:30:50;4.72;;;1.52;;
14847;SDS011;7516;43.570;1.448;2023-09-19T05:33:18;3.03;;;1.27;;
14847;SDS011;7516;43.570;1.448;2023-09-19T05:35:47;3.80;;;1.67;;
14847;SDS011;7516;43.570;1.448;2023-09-19T05:38:15;6.85;;;1.88;;
14847;SDS011;7516;43.570;1.448;2023-09-19T05:40:44;4.75;;;1.63;;
14847;SDS011;7516;43.570;1.448;2023-09-19T05:43:12;4.82;;;1.80;;
14847;SDS011;7516;43.570;1.448;2023-09-19T05:45:41;5.50;;;1.65;;
14847;SDS011;7516;43.570;1.448;2023-09-19T05:48:11;5.82;;;1.60;;
14847;SDS011;7516;43.570;1.448;2023-09-19T05:50:41;5.57;;;1.73;;
14847;SDS011;7516;43.570;1.448;2023-09-19T05:53:11;5.38;;;2.10;;
14847;SDS011;7516;43.570;1.448;2023-09-19T05:55:39;3.65;;;1.50;;
14847;SDS011;7516;43.570;1.448;2023-09-19T05:58:07;4.70;;;1.60;;
14847;SDS011;7516;43.570;1.448;2023-09-19T06:00:35;7.05;;;1.60;;
14847;SDS011;7516;43.570;1.448;2023-09-19T06:03:04;4.38;;;1.60;;
14847;SDS011;7516;43.570;1.448;2023-09-19T06:05:32;3.45;;;1.30;;
14847;SDS011;7516;43.570;1.448;2023-09-19T06:07:59;3.55;;;1.70;;
14847;SDS011;7516;43.570;1.448;2023-09-19T06:10:32;3.40;;;1.80;;
14847;SDS011;7516;43.570;1.448;2023-09-19T06:13:01;4.40;;;1.52;;
14847;SDS011;7516;43.570;1.448;2023-09-19T06:15:31;4.40;;;1.40;;
14847;SDS011;7516;43.570;1.448;2023-09-19T06:18:01;3.65;;;1.40;;
14847;SDS011;7516;43.570;1.448;2023-09-19T06:20:31;5.32;;;1.88;;
14847;SDS011;7516;43.570;1.448;2023-09-19T06:22:59;5.13;;;2.13;;
14847;SDS011;7516;43.570;1.448;2023-09-19T06:25:27;6.65;;;1.60;;
14847;SDS011;7516;43.570;1.448;2023-09-19T06:27:54;3.22;;;1.50;;
14847;SDS011;7516;43.570;1.448;2023-09-19T06:30:23;5.15;;;1.27;;
14847;SDS011;7516;43.570;1.448;2023-09-19T06:32:55;3.83;;;1.60;;
14847;SDS011;7516;43.570;1.448;2023-09-19T06:35:23;4.15;;;2.03;;
14847;SDS011;7516;43.570;1.448;2023-09-19T06:37:53;3.10;;;1.60;;
14847;SDS011;7516;43.570;1.448;2023-09-19T06:40:22;2.78;;;1.60;;
14847;SDS011;7516;43.570;1.448;2023-09-19T06:42:50;4.28;;;1.35;;
14847;SDS011;7516;43.570;1.448;2023-09-19T06:45:19;4.18;;;1.85;;
14847;SDS011;7516;43.570;1.448;2023-09-19T06:47:47;3.28;;;1.42;;
14847;SDS011;7516;43.570;1.448;2023-09-19T06:50:16;4.47;;;1.40;;
14847;SDS011;7516;43.570;1.448;2023-09-19T06:52:45;5.30;;;1.92;;
14847;SDS011;7516;43.570;1.448;2023-09-19T06:55:16;4.45;;;1.83;;
14847;SDS011;7516;43.570;1.448;2023-09-19T06:57:45;2.97;;;1.38;;
14847;SDS011;7516;43.570;1.448;2023-09-19T07:00:13;3.47;;;1.48;;
14847;SDS011;7516;43.570;1.448;2023-09-19T07:02:43;4.97;;;1.50;;
14847;SDS011;7516;43.570;1.448;2023-09-19T07:05:11;5.15;;;1.60;;
14847;SDS011;7516;43.570;1.448;2023-09-19T07:07:38;3.75;;;1.58;;
14847;SDS011;7516;43.570;1.448;2023-09-19T07:10:06;3.28;;;1.30;;
14847;SDS011;7516;43.570;1.448;2023-09-19T07:12:37;5.15;;;1.75;;
14847;SDS011;7516;43.570;1.448;2023-09-19T07:15:06;9.02;;;1.83;;
14847;SDS011;7516;43.570;1.448;2023-09-19T07:17:34;4.82;;;1.60;;
14847;SDS011;7516;43.570;1.448;2023-09-19T07:20:02;4.72;;;1.67;;
14847;SDS011;7516;43.570;1.448;2023-09-19T07:22:33;4.97;;;1.52;;
14847;SDS011;7516;43.570;1.448;2023-09-19T07:25:01;6.55;;;1.50;;
14847;SDS011;7516;43.570;1.448;2023-09-19T07:27:28;4.45;;;1.90;;
14847;SDS011;7516;43.570;1.448;2023-09-19T07:29:57;6.80;;;1.70;;
14847;SDS011;7516;43.570;1.448;2023-09-19T07:32:25;5.60;;;1.80;;
14847;SDS011;7516;43.570;1.448;2023-09-19T07:34:52;5.00;;;1.67;;
14847;SDS011;7516;43.570;1.448;2023-09-19T07:37:20;7.20;;;1.95;;
14847;SDS011;7516;43.570;1.448;2023-09-19T07:39:50;4.13;;;1.75;;
14847;SDS011;7516;43.570;1.448;2023-09-19T07:42:18;7.38;;;1.63;;
14847;SDS011;7516;43.570;1.448;2023-09-19T07:44:45;5.63;;;2.17;;
14847;SDS011;7516;43.570;1.448;2023-09-19T07:47:17;5.43;;;1.90;;
14847;SDS011;7516;43.570;1.448;2023-09-19T07:49:47;5.43;;;1.60;;
14847;SDS011;7516;43.570;1.448;2023-09-19T07:52:15;3.92;;;1.70;;
14847;SDS011;7516;43.570;1.448;2023-09-19T07:54:42;5.72;;;1.70;;
14847;SDS011;7516;43.570;1.448;2023-09-19T07:57:10;5.20;;;1.65;;
14847;SDS011;7516;43.570;1.448;2023-09-19T07:59:37;4.00;;;1.60;;
14847;SDS011;7516;43.570;1.448;2023-09-19T08:02:07;7.43;;;1.63;;
14847;SDS011;7516;43.570;1.448;2023-09-19T08:04:36;5.35;;;1.60;;
14847;SDS011;7516;43.570;1.448;2023-09-19T08:07:04;6.63;;;1.88;;
14847;SDS011;7516;43.570;1.448;2023-09-19T08:09:33;4.28;;;1.45;;
14847;SDS011;7516;43.570;1.448;2023-09-19T08:12:03;8.48;;;1.55;;
14847;SDS011;7516;43.570;1.448;2023-09-19T08:14:33;6.80;;;1.77;;
14847;SDS011;7516;43.570;1.448;2023-09-19T08:17:00;5.93;;;1.63;;
14847;SDS011;7516;43.570;1.448;2023-09-19T08:19:29;5.68;;;1.48;;
14847;SDS011;7516;43.570;1.448;2023-09-19T08:21:58;5.72;;;1.65;;
14847;SDS011;7516;43.570;1.448;2023-09-19T08:24:26;5.82;;;1.58;;
14847;SDS011;7516;43.570;1.448;2023-09-19T08:26:54;5.88;;;1.65;;
14847;SDS011;7516;43.570;1.448;2023-09-19T08:29:22;4.15;;;1.55;;
14847;SDS011;7516;43.570;1.448;2023-09-19T08:31:53;9.98;;;1.70;;
14847;SDS011;7516;43.570;1.448;2023-09-19T08:34:21;5.57;;;1.80;;
14847;SDS011;7516;43.570;1.448;2023-09-19T08:36:50;6.47;;;2.00;;
14847;SDS011;7516;43.570;1.448;2023-09-19T08:39:23;6.10;;;2.00;;
14847;SDS011;7516;43.570;1.448;2023-09-19T08:41:56;4.28;;;1.27;;
14847;SDS011;7516;43.570;1.448;2023-09-19T08:44:25;6.35;;;1.63;;
14847;SDS011;7516;43.570;1.448;2023-09-19T08:46:55;9.23;;;1.63;;
14847;SDS011;7516;43.570;1.448;2023-09-19T08:49:33;5.63;;;1.45;;
14847;SDS011;7516;43.570;1.448;2023-09-19T08:52:10;4.38;;;1.40;;
14847;SDS011;7516;43.570;1.448;2023-09-19T08:54:50;7.22;;;1.80;;
14847;SDS011;7516;43.570;1.448;2023-09-19T08:57:22;6.00;;;1.40;;
14847;SDS011;7516;43.570;1.448;2023-09-19T08:59:52;4.80;;;1.67;;
14847;SDS011;7516;43.570;1.448;2023-09-19T09:02:20;5.53;;;1.80;;
14847;SDS011;7516;43.570;1.448;2023-09-19T09:04:50;6.32;;;1.60;;
14847;SDS011;7516;43.570;1.448;2023-09-19T09:07:18;3.72;;;1.30;;
14847;SDS011;7516;43.570;1.448;2023-09-19T09:09:48;5.25;;;1.67;;
14847;SDS011;7516;43.570;1.448;2023-09-19T09:12:17;6.05;;;1.35;;
14847;SDS011;7516;43.570;1.448;2023-09-19T09:14:45;7.10;;;1.60;;
14847;SDS011;7516;43.570;1.448;2023-09-19T09:17:15;5.28;;;1.55;;
14847;SDS011;7516;43.570;1.448;2023-09-19T09:19:42;7.40;;;1.67;;
14847;SDS011;7516;43.570;1.448;2023-09-19T09:22:10;5.75;;;1.50;;
14847;SDS011;7516;43.570;1.448;2023-09-19T09:24:51;5.60;;;1.50;;
14847;SDS011;7516;43.570;1.448;2023-09-19T09:27:23;6.13;;;2.00;;
14847;SDS011;7516;43.570;1.448;2023-09-19T09:29:51;6.57;;;1.90;;
14847;SDS011;7516;43.570;1.448;2023-09-19T09:32:20;6.90;;;1.33;;
14847;SDS011;7516;43.570;1.448;2023-09-19T09:34:50;5.85;;;1.50;;
14847;SDS011;7516;43.570;1.448;2023-09-19T09:37:20;6.18;;;1.50;;
14847;SDS011;7516;43.570;1.448;2023-09-19T09:39:50;3.58;;;1.58;;
14847;SDS011;7516;43.570;1.448;2023-09-19T09:42:31;5.53;;;1.63;;
14847;SDS011;7516;43.570;1.448;2023-09-19T09:45:16;8.68;;;1.75;;
14847;SDS011;7516;43.570;1.448;2023-09-19T09:47:53;8.82;;;1.40;;
14847;SDS011;7516;43.570;1.448;2023-09-19T09:50:24;7.38;;;1.58;;
14847;SDS011;7516;43.570;1.448;2023-09-19T09:52:54;4.70;;;1.25;;
14847;SDS011;7516;43.570;1.448;2023-09-19T09:55:34;6.30;;;1.55;;
14847;SDS011;7516;43.570;1.448;2023-09-19T09:58:25;5.63;;;1.30;;
14847;SDS011;7516;43.570;1.448;2023-09-19T10:00:56;6.45;;;1.58;;
14847;SDS011;7516;43.570;1.448;2023-09-19T10:03:33;3.67;;;1.25;;
14847;SDS011;7516;43.570;1.448;2023-09-19T10:06:05;6.70;;;1.75;;
14847;SDS011;7516;43.570;1.448;2023-09-19T10:09:00;7.50;;;1.90;;
14847;SDS011;7516;43.570;1.448;2023-09-19T10:11:38;4.78;;;1.30;;
14847;SDS011;7516;43.570;1.448;2023-09-19T10:14:09;5.35;;;1.50;;
14847;SDS011;7516;43.570;1.448;2023-09-19T10:16:45;4.68;;;1.52;;
14847;SDS011;7516;43.570;1.448;2023-09-19T10:19:15;4.05;;;1.27;;
14847;SDS011;7516;43.570;1.448;2023-09-19T10:21:49;4.90;;;1.13;;
14847;SDS011;7516;43.570;1.448;2023-09-19T10:24:20;4.35;;;1.20;;
14847;SDS011;7516;43.570;1.448;2023-09-19T10:26:51;5.15;;;1.33;;
14847;SDS011;7516;43.570;1.448;2023-09-19T10:29:21;4.93;;;1.23;;
14847;SDS011;7516;43.570;1.448;2023-09-19T10:31:52;4.90;;;1.08;;
14847;SDS011;7516;43.570;1.448;2023-09-19T10:34:20;4.60;;;1.17;;
14847;SDS011;7516;43.570;1.448;2023-09-19T10:36:51;5.47;;;1.48;;
14847;SDS011;7516;43.570;1.448;2023-09-19T10:39:20;2.47;;;0.75;;
14847;SDS011;7516;43.570;1.448;2023-09-19T10:41:51;5.05;;;1.08;;
14847;SDS011;7516;43.570;1.448;2023-09-19T10:44:24;2.63;;;1.08;;
14847;SDS011;7516;43.570;1.448;2023-09-19T10:46:53;3.08;;;0.90;;
14847;SDS011;7516;43.570;1.448;2023-09-19T10:49:22;5.20;;;1.27;;
14847;SDS011;7516;43.570;1.448;2023-09-19T10:51:51;5.63;;;1.30;;
14847;SDS011;7516;43.570;1.448;2023-09-19T10:54:24;5.22;;;1.13;;
14847;SDS011;7516;43.570;1.448;2023-09-19T10:56:55;6.22;;;1.17;;
14847;SDS011;7516;43.570;1.448;2023-09-19T10:59:24;2.92;;;0.98;;
14847;SDS011;7516;43.570;1.448;2023-09-19T11:02:00;3.95;;;1.10;;
14847;SDS011;7516;43.570;1.448;2023-09-19T11:04:43;3.67;;;1.08;;
14847;SDS011;7516;43.570;1.448;2023-09-19T11:07:13;3.30;;;0.90;;
14847;SDS011;7516;43.570;1.448;2023-09-19T11:09:48;4.80;;;0.90;;
14847;SDS011;7516;43.570;1.448;2023-09-19T11:21:40;4.40;;;1.00;;
14847;SDS011;7516;43.570;1.448;2023-09-19T11:24:29;2.25;;;0.70;;
14847;SDS011;7516;43.570;1.448;2023-09-19T11:27:11;2.33;;;0.80;;
14847;SDS011;7516;43.570;1.448;2023-09-19T11:29:43;3.15;;;0.73;;
14847;SDS011;7516;43.570;1.448;2023-09-19T11:32:12;2.25;;;0.80;;
14847;SDS011;7516;43.570;1.448;2023-09-19T11:34:46;2.33;;;0.70;;
14847;SDS011;7516;43.570;1.448;2023-09-19T11:40:35;4.43;;;0.85;;
14847;SDS011;7516;43.570;1.448;2023-09-19T11:46:10;4.20;;;0.90;;
14847;SDS011;7516;43.570;1.448;2023-09-19T11:48:40;2.75;;;1.10;;
14847;SDS011;7516;43.570;1.448;2023-09-19T11:51:18;4.38;;;0.90;;
14847;SDS011;7516;43.570;1.448;2023-09-19T11:53:52;2.60;;;0.80;;
14847;SDS011;7516;43.570;1.448;2023-09-19T11:56:21;4.32;;;1.10;;
14847;SDS011;7516;43.570;1.448;2023-09-19T11:58:51;3.75;;;0.80;;
14847;SDS011;7516;43.570;1.448;2023-09-19T12:01:25;2.03;;;0.60;;
14847;SDS011;7516;43.570;1.448;2023-09-19T12:03:57;2.10;;;0.50;;
14847;SDS011;7516;43.570;1.448;2023-09-19T12:06:27;2.85;;;0.90;;
14847;SDS011;7516;43.570;1.448;2023-09-19T12:08:57;4.03;;;0.90;;
14847;SDS011;7516;43.570;1.448;2023-09-19T12:11:28;3.00;;;1.02;;
14847;SDS011;7516;43.570;1.448;2023-09-19T12:13:59;3.75;;;0.93;;
14847;SDS011;7516;43.570;1.448;2023-09-19T12:16:29;3.60;;;0.80;;
14847;SDS011;7516;43.570;1.448;2023-09-19T12:18:58;2.55;;;0.60;;
14847;SDS011;7516;43.570;1.448;2023-09-19T12:21:52;4.40;;;0.80;;
14847;SDS011;7516;43.570;1.448;2023-09-19T12:24:23;3.35;;;0.70;;
14847;SDS011;7516;43.570;1.448;2023-09-19T12:26:59;4.60;;;0.98;;
14847;SDS011;7516;43.570;1.448;2023-09-19T12:29:30;1.80;;;0.82;;
14847;SDS011;7516;43.570;1.448;2023-09-19T12:32:00;3.83;;;0.65;;
14847;SDS011;7516;43.570;1.448;2023-09-19T12:34:31;2.20;;;0.65;;
14847;SDS011;7516;43.570;1.448;2023-09-19T12:37:07;2.80;;;0.88;;
14847;SDS011;7516;43.570;1.448;2023-09-19T12:39:41;3.85;;;0.80;;
14847;SDS011;7516;43.570;1.448;2023-09-19T12:42:13;3.15;;;0.82;;
14847;SDS011;7516;43.570;1.448;2023-09-19T12:44:42;4.43;;;0.98;;
14847;SDS011;7516;43.570;1.448;2023-09-19T12:47:13;5.30;;;1.10;;
14847;SDS011;7516;43.570;1.448;2023-09-19T12:52:35;3.33;;;0.90;;
14847;SDS011;7516;43.570;1.448;2023-09-19T12:55:03;2.65;;;0.70;;
14847;SDS011;7516;43.570;1.448;2023-09-19T12:57:33;1.95;;;0.90;;
14847;SDS011;7516;43.570;1.448;2023-09-19T13:00:00;1.77;;;0.80;;
14847;SDS011;7516;43.570;1.448;2023-09-19T13:02:32;4.55;;;0.88;;
14847;SDS011;7516;43.570;1.448;2023-09-19T13:04:59;3.78;;;1.15;;
14847;SDS011;7516;43.570;1.448;2023-09-19T13:07:42;2.97;;;1.00;;
14847;SDS011;7516;43.570;1.448;2023-09-19T13:10:12;2.22;;;0.80;;
14847;SDS011;7516;43.570;1.448;2023-09-19T13:12:42;4.47;;;1.05;;
14847;SDS011;7516;43.570;1.448;2023-09-19T13:15:12;2.30;;;0.70;;
14847;SDS011;7516;43.570;1.448;2023-09-19T13:17:45;3.88;;;0.60;;
14847;SDS011;7516;43.570;1.448;2023-09-19T13:20:20;2.60;;;0.60;;
14847;SDS011;7516;43.570;1.448;2023-09-19T13:22:52;3.92;;;1.17;;
14847;SDS011;7516;43.570;1.448;2023-09-19T13:25:25;4.10;;;1.17;;
14847;SDS011;7516;43.570;1.448;2023-09-19T13:27:56;3.00;;;0.93;;
14847;SDS011;7516;43.570;1.448;2023-09-19T13:30:26;2.60;;;0.80;;
14847;SDS011;7516;43.570;1.448;2023-09-19T13:33:05;2.92;;;0.90;;
14847;SDS011;7516;43.570;1.448;2023-09-19T13:35:37;2.53;;;0.70;;
14847;SDS011;7516;43.570;1.448;2023-09-19T13:38:06;1.77;;;0.70;;
14847;SDS011;7516;43.570;1.448;2023-09-19T13:40:36;2.65;;;0.85;;
14847;SDS011;7516;43.570;1.448;2023-09-19T13:43:07;2.53;;;0.73;;
14847;SDS011;7516;43.570;1.448;2023-09-19T13:45:36;1.42;;;0.60;;
14847;SDS011;7516;43.570;1.448;2023-09-19T13:48:05;2.80;;;0.93;;
14847;SDS011;7516;43.570;1.448;2023-09-19T13:50:34;2.15;;;0.93;;
14847;SDS011;7516;43.570;1.448;2023-09-19T13:53:07;1.17;;;0.60;;
14847;SDS011;7516;43.570;1.448;2023-09-19T13:55:34;3.63;;;0.82;;
14847;SDS011;7516;43.570;1.448;2023-09-19T13:58:03;2.33;;;0.73;;
14847;SDS011;7516;43.570;1.448;2023-09-19T14:00:31;3.33;;;1.23;;
14847;SDS011;7516;43.570;1.448;2023-09-19T14:03:00;1.85;;;0.70;;
14847;SDS011;7516;43.570;1.448;2023-09-19T14:05:30;3.35;;;0.93;;
14847;SDS011;7516;43.570;1.448;2023-09-19T14:07:58;2.20;;;0.82;;
14847;SDS011;7516;43.570;1.448;2023-09-19T14:10:28;2.38;;;0.90;;
14847;SDS011;7516;43.570;1.448;2023-09-19T14:12:56;2.65;;;0.60;;
14847;SDS011;7516;43.570;1.448;2023-09-19T14:15:24;1.98;;;0.70;;
14847;SDS011;7516;43.570;1.448;2023-09-19T14:17:55;2.28;;;0.63;;
14847;SDS011;7516;43.570;1.448;2023-09-19T14:20:24;2.78;;;0.70;;
14847;SDS011;7516;43.570;1.448;2023-09-19T14:22:54;3.45;;;1.10;;
14847;SDS011;7516;43.570;1.448;2023-09-19T14:25:23;2.22;;;0.85;;
14847;SDS011;7516;43.570;1.448;2023-09-19T14:27:51;2.75;;;0.88;;
14847;SDS011;7516;43.570;1.448;2023-09-19T14:30:19;2.53;;;0.80;;
14847;SDS011;7516;43.570;1.448;2023-09-19T14:32:47;2.17;;;0.70;;
14847;SDS011;7516;43.570;1.448;2023-09-19T14:35:14;3.90;;;1.02;;
14847;SDS011;7516;43.570;1.448;2023-09-19T14:37:42;4.28;;;0.80;;
14847;SDS011;7516;43.570;1.448;2023-09-19T14:40:12;2.00;;;1.00;;
14847;SDS011;7516;43.570;1.448;2023-09-19T14:42:42;2.67;;;0.80;;
14847;SDS011;7516;43.570;1.448;2023-09-19T14:45:10;3.50;;;0.93;;
14847;SDS011;7516;43.570;1.448;2023-09-19T14:47:39;3.58;;;0.93;;
14847;SDS011;7516;43.570;1.448;2023-09-19T14:50:07;2.60;;;0.93;;
14847;SDS011;7516;43.570;1.448;2023-09-19T14:52:37;2.03;;;0.90;;
14847;SDS011;7516;43.570;1.448;2023-09-19T14:55:06;2.85;;;0.90;;
14847;SDS011;7516;43.570;1.448;2023-09-19T14:57:42;2.85;;;0.80;;
14847;SDS011;7516;43.570;1.448;2023-09-19T15:00:11;2.45;;;1.00;;
14847;SDS011;7516;43.570;1.448;2023-09-19T15:02:39;3.67;;;1.27;;
14847;SDS011;7516;43.570;1.448;2023-09-19T15:05:07;2.80;;;1.10;;
14847;SDS011;7516;43.570;1.448;2023-09-19T15:07:36;2.28;;;0.77;;
14847;SDS011;7516;43.570;1.448;2023-09-19T15:10:05;1.50;;;0.80;;
14847;SDS011;7516;43.570;1.448;2023-09-19T15:12:35;2.75;;;1.08;;
14847;SDS011;7516;43.570;1.448;2023-09-19T15:15:07;1.83;;;0.80;;
14847;SDS011;7516;43.570;1.448;2023-09-19T15:17:35;3.58;;;0.93;;
14847;SDS011;7516;43.570;1.448;2023-09-19T15:20:03;2.95;;;0.98;;
14847;SDS011;7516;43.570;1.448;2023-09-19T15:22:32;1.02;;;0.73;;
14847;SDS011;7516;43.570;1.448;2023-09-19T15:25:00;2.08;;;0.80;;
14847;SDS011;7516;43.570;1.448;2023-09-19T15:27:29;3.78;;;1.00;;
14847;SDS011;7516;43.570;1.448;2023-09-19T15:29:59;2.30;;;0.98;;
14847;SDS011;7516;43.570;1.448;2023-09-19T15:32:29;4.75;;;0.80;;
14847;SDS011;7516;43.570;1.448;2023-09-19T15:34:57;1.98;;;0.80;;
14847;SDS011;7516;43.570;1.448;2023-09-19T15:37:25;3.13;;;1.10;;